Aviation Digital Data Service (ADDS)

Output produced by METARs form (1103 UTC 19 January 2019)
found at http://www.aviationweather.gov/metar/data/
 
ESSA 191050Z 25011KT CAVOK M04/M06 Q1006 R01L/19//61 R08/19//65 R01R/SNOCLO NOSIG
TAF AMD ESSA 191034Z 1910/2006 21008KT CAVOK 
     BECMG 1912/1914 27010KT
       
ESNX 191050Z AUTO 00000KT 9999 NCD M25/M27 Q0996
ESSD 191050Z AUTO 26014KT 9999 BKN094/// M03/M06 Q1005
ESSB 191050Z 21009KT CAVOK M03/M05 Q1007 R12/19//74
TAF ESSB 190830Z 1909/1916 22006KT CAVOK 
     BECMG 1909/1911 28010KT
       
ESNG 191050Z AUTO 29004KT 9999 FEW096/// M21/M23 Q0997
ESMT 191050Z AUTO 26010KT 9999 FEW026/// 03/01 Q1016
TAF ESMT 191012Z 1911/1916 26008KT 9999 SCT020
       
ESUT 191050Z AUTO 34006KT 9999 ///////// M08/M12 Q0998
ESGJ 191050Z 26012KT CAVOK 00/M02 Q1012 R19/390151
TAF ESGJ 190830Z 1909/1914 24007KT CAVOK
       
ESPA 191050Z 31004KT CAVOK M25/M28 Q1000
TAF ESPA 190830Z 1909/1918 VRB02KT CAVOK
       
ESMQ 191050Z 24007KT 9999 FEW020 01/M01 Q1014
TAF ESMQ 190830Z 1909/1913 25006KT CAVOK
       
ESIA 191050Z AUTO 26010KT 9999 NCD 00/M03 Q1010
ESOK 191050Z AUTO 23009KT 9999 NCD M01/M03 Q1008
TAF ESOK 191030Z 1911/1914 23009KT CAVOK 
     BECMG 1911/1913 29010KT
       
ESNQ 191050Z 21002KT 9999 FEW022 M21/M23 Q0996
TAF ESNQ 190830Z 1909/1916 VRB02KT CAVOK
       
ESNK 191050Z AUTO 00000KT 9999 OVC034/// M14/M16 Q0999
ESMK 191050Z AUTO 25007KT 9999 NCD 01/// Q1017
ESMX 191050Z AUTO 27009KT 9999 OVC004/// 00/00 Q1014
TAF ESMX 190830Z 1909/1911 23006KT 9999 SCT003 BKN025 
     PROB40 1909/1911 BKN003
       
ESSP 191050Z AUTO 25011KT 9999 NCD M00/M03 Q1009
TAF ESSP 190430Z 1905/1907 24006KT CAVOK
       
ESGG 191050Z 23008KT 9999 BKN024 01/M01 Q1014 R21/39//95
TAF ESGG 190530Z 1906/2006 27006KT CAVOK 
     PROB40 1913/1920 2000 SHSN VV008 
     TEMPO 1920/2006 2000 BR BKN004
       
ESTL 191050Z AUTO 25008KT 9999 FEW005/// 03/01 Q1017
ESNL 191050Z AUTO 00000KT 1900 -SN SCT005/// BKN008/// OVC018/// M19/M21 Q0998
ESCF 191050Z AUTO 25013KT 9999 NCD 01/M02 Q1010
ESKM 191050Z AUTO 30003KT 260V340 9999 SCT074/// M09/M10 Q1005
ESOE 191050Z AUTO 24010KT 9999 NCD 01/M03 Q1008
TAF ESOE 190930Z 1910/1916 26010KT CAVOK
       
ESNO 191050Z AUTO 25005KT 0550 R12/1000D R30/1000D SN VV006 M10/M11 Q0997
TAF AMD ESNO 191037Z 1911/1913 VRB02KT 8000 -SN VV020 
     TEMPO 1911/1913 0700 SN VV009
       
ESUP 191050Z AUTO 00000KT 2900 -SN NCD M22/M24 Q0999
ESDF 191050Z 28003KT 230V310 9999 FEW006 BKN009 M01/M01 Q1016
TAF AMD ESDF 191055Z 1910/1916 27004KT 9999 SCT006 BKN025 
     PROB40 1910/1914 BKN006
       
ESSL 191050Z AUTO 26011KT 9999 SCT210/// 01/M02 Q1010
TAF ESSL 190430Z 1905/1907 23007KT CAVOK
       
ESIB 191050Z AUTO 25015KT 9999 FEW170/// 03/M00 Q1011
ESKN 191050Z 26009KT CAVOK M02/M04 Q1009 R26/710195
TAF ESKN 190530Z 1906/2006 27006KT CAVOK 
     PROB40 1914/1918 2500 -SN VV014
       
ESNS 191050Z 28002KT CAVOK M25/M28 Q0999
TAF ESNS 190830Z 1909/1912 29004KT CAVOK
       
ESGR 191050Z AUTO 25013KT 9999 NCD 02/M01 Q1011
ESMS 191050Z 25007KT 9000 NSC 01/00 Q1018 R17/29//95
TAF AMD ESMS 190749Z 1907/2006 27006KT 9999 FEW005 
     TEMPO 1907/1910 0500 FZFG 
     BECMG 1912/1914 0600 FZFG FG BKN002 
     TEMPO 1914/1920 5000 BR SCT003 
     BECMG 1920/1922 6000 NSW FEW005 
     TEMPO 1922/2006 3000 BR BKN005
       
ESNN 191050Z AUTO VRB01KT 9999 NCD M13/M15 Q1000 REFZUP
ESND 191050Z AUTO 29005KT 250V320 9999 SCT033/// M07/M09 Q1003
ESST 191050Z AUTO 00000KT 9999 FEW190/// M14/M15 Q1008 RESN
ESGT 191050Z AUTO 24015KT 9999 NCD 03/M02 Q1012
ESNU 191050Z 24002KT CAVOK M16/M18 Q0999 R14/72//50
TAF ESNU 190830Z 1909/1918 VRB02KT CAVOK 
     PROB40 1910/1915 2000 SN VV012
       
ESCM 191050Z AUTO 24007KT 9999 FEW082/// M06/M07 Q1006
ESOW 191050Z AUTO 23006KT 200V270 9999 OVC062/// M05/M07 Q1008
ESPE 191050Z AUTO 00000KT 9999 NCD M29/M32 Q0999
ESNV 191050Z AUTO 31002KT 9999 -SN FEW003/// BKN013/// OVC019/// M10/M13 Q0996
ESSV 191050Z 23012KT CAVOK 01/M02 Q1011 R21/09//76
TAF ESSV 190830Z 1909/1918 28012KT CAVOK 
     BECMG 1909/1911 22015KT 
     PROB40 1911/1914 23015G25KT SN BKN012